sensor_id;sensor_type;location;lat;lon;timestamp;P1;durP1;ratioP1;P2;durP2;ratioP2
62121;SDS011;48108;47.532;19.084;2024-03-22T05:01:19;19.83;;;10.75;;
62121;SDS011;48108;47.532;19.084;2024-03-22T05:04:21;20.77;;;10.50;;
62121;SDS011;48108;47.532;19.084;2024-03-22T05:07:23;18.12;;;10.25;;
62121;SDS011;48108;47.532;19.084;2024-03-22T05:10:25;19.48;;;10.20;;
62121;SDS011;48108;47.532;19.084;2024-03-22T05:13:30;17.75;;;10.00;;
62121;SDS011;48108;47.532;19.084;2024-03-22T05:16:32;17.80;;;10.43;;
62121;SDS011;48108;47.532;19.084;2024-03-22T05:19:34;19.87;;;10.57;;
62121;SDS011;48108;47.532;19.084;2024-03-22T05:22:38;16.17;;;9.82;;
62121;SDS011;48108;47.532;19.084;2024-03-22T05:25:39;18.62;;;9.45;;
62121;SDS011;48108;47.532;19.084;2024-03-22T05:28:44;20.27;;;10.10;;
62121;SDS011;48108;47.532;19.084;2024-03-22T05:31:47;20.60;;;10.60;;
62121;SDS011;48108;47.532;19.084;2024-03-22T05:34:52;21.08;;;10.45;;
62121;SDS011;48108;47.532;19.084;2024-03-22T05:37:54;17.17;;;10.00;;
62121;SDS011;48108;47.532;19.084;2024-03-22T05:40:57;18.48;;;10.25;;
62121;SDS011;48108;47.532;19.084;2024-03-22T05:43:58;19.83;;;10.18;;
62121;SDS011;48108;47.532;19.084;2024-03-22T05:47:01;18.62;;;10.05;;
62121;SDS011;48108;47.532;19.084;2024-03-22T05:50:03;18.58;;;10.23;;
62121;SDS011;48108;47.532;19.084;2024-03-22T05:53:06;19.08;;;10.10;;
62121;SDS011;48108;47.532;19.084;2024-03-22T05:56:08;17.95;;;10.15;;
62121;SDS011;48108;47.532;19.084;2024-03-22T05:59:10;19.42;;;10.15;;
62121;SDS011;48108;47.532;19.084;2024-03-22T06:02:12;17.98;;;10.38;;
62121;SDS011;48108;47.532;19.084;2024-03-22T06:05:15;19.65;;;10.63;;
62121;SDS011;48108;47.532;19.084;2024-03-22T06:08:19;19.95;;;9.52;;
62121;SDS011;48108;47.532;19.084;2024-03-22T06:11:24;17.08;;;9.35;;
62121;SDS011;48108;47.532;19.084;2024-03-22T06:14:26;17.60;;;10.15;;
62121;SDS011;48108;47.532;19.084;2024-03-22T06:17:28;17.92;;;10.10;;
62121;SDS011;48108;47.532;19.084;2024-03-22T06:20:30;19.52;;;9.82;;
62121;SDS011;48108;47.532;19.084;2024-03-22T06:23:33;28.42;;;11.25;;
62121;SDS011;48108;47.532;19.084;2024-03-22T06:26:35;17.20;;;10.27;;
62121;SDS011;48108;47.532;19.084;2024-03-22T06:29:39;17.33;;;9.95;;
62121;SDS011;48108;47.532;19.084;2024-03-22T06:32:41;16.60;;;9.38;;
62121;SDS011;48108;47.532;19.084;2024-03-22T06:35:43;16.30;;;9.55;;
62121;SDS011;48108;47.532;19.084;2024-03-22T06:38:45;16.20;;;9.15;;
62121;SDS011;48108;47.532;19.084;2024-03-22T06:41:47;18.67;;;9.63;;
62121;SDS011;48108;47.532;19.084;2024-03-22T06:44:49;16.17;;;9.23;;
62121;SDS011;48108;47.532;19.084;2024-03-22T06:47:51;20.50;;;10.02;;
62121;SDS011;48108;47.532;19.084;2024-03-22T06:50:53;19.55;;;9.82;;
62121;SDS011;48108;47.532;19.084;2024-03-22T06:53:56;17.70;;;10.43;;
62121;SDS011;48108;47.532;19.084;2024-03-22T06:56:57;17.40;;;9.77;;
62121;SDS011;48108;47.532;19.084;2024-03-22T06:59:59;20.02;;;9.93;;
62121;SDS011;48108;47.532;19.084;2024-03-22T07:03:02;22.27;;;11.35;;
62121;SDS011;48108;47.532;19.084;2024-03-22T07:06:05;19.17;;;9.95;;
62121;SDS011;48108;47.532;19.084;2024-03-22T07:09:09;21.90;;;10.73;;
62121;SDS011;48108;47.532;19.084;2024-03-22T07:12:13;18.08;;;10.98;;
62121;SDS011;48108;47.532;19.084;2024-03-22T07:15:15;18.45;;;9.98;;
62121;SDS011;48108;47.532;19.084;2024-03-22T07:18:17;18.48;;;10.18;;
62121;SDS011;48108;47.532;19.084;2024-03-22T07:21:19;21.77;;;10.88;;
62121;SDS011;48108;47.532;19.084;2024-03-22T07:24:22;16.95;;;10.48;;
62121;SDS011;48108;47.532;19.084;2024-03-22T07:27:25;19.85;;;10.68;;
62121;SDS011;48108;47.532;19.084;2024-03-22T07:30:31;19.85;;;10.88;;
62121;SDS011;48108;47.532;19.084;2024-03-22T07:33:32;23.38;;;10.45;;
62121;SDS011;48108;47.532;19.084;2024-03-22T07:36:38;23.35;;;11.68;;
62121;SDS011;48108;47.532;19.084;2024-03-22T07:39:40;20.65;;;10.63;;
62121;SDS011;48108;47.532;19.084;2024-03-22T07:42:42;21.70;;;10.27;;
62121;SDS011;48108;47.532;19.084;2024-03-22T07:45:44;19.92;;;10.57;;
62121;SDS011;48108;47.532;19.084;2024-03-22T07:48:46;19.00;;;11.00;;
62121;SDS011;48108;47.532;19.084;2024-03-22T07:51:48;16.42;;;10.90;;
62121;SDS011;48108;47.532;19.084;2024-03-22T07:54:50;19.67;;;10.40;;
62121;SDS011;48108;47.532;19.084;2024-03-22T07:57:51;18.62;;;10.27;;
62121;SDS011;48108;47.532;19.084;2024-03-22T08:00:54;18.33;;;10.85;;
62121;SDS011;48108;47.532;19.084;2024-03-22T08:03:56;19.30;;;10.65;;
62121;SDS011;48108;47.532;19.084;2024-03-22T08:06:58;23.02;;;10.90;;
62121;SDS011;48108;47.532;19.084;2024-03-22T08:10:00;18.20;;;10.38;;
62121;SDS011;48108;47.532;19.084;2024-03-22T08:13:03;17.98;;;9.95;;
62121;SDS011;48108;47.532;19.084;2024-03-22T08:16:05;18.50;;;10.63;;
62121;SDS011;48108;47.532;19.084;2024-03-22T08:19:07;20.15;;;11.35;;
62121;SDS011;48108;47.532;19.084;2024-03-22T08:22:09;17.73;;;10.60;;
62121;SDS011;48108;47.532;19.084;2024-03-22T08:25:11;20.17;;;10.95;;
62121;SDS011;48108;47.532;19.084;2024-03-22T08:28:14;19.02;;;10.60;;
62121;SDS011;48108;47.532;19.084;2024-03-22T08:31:17;23.08;;;11.48;;
62121;SDS011;48108;47.532;19.084;2024-03-22T08:34:20;17.37;;;10.15;;
62121;SDS011;48108;47.532;19.084;2024-03-22T08:37:22;18.17;;;10.57;;
62121;SDS011;48108;47.532;19.084;2024-03-22T08:40:24;22.23;;;11.40;;
62121;SDS011;48108;47.532;19.084;2024-03-22T08:43:26;18.08;;;11.85;;
62121;SDS011;48108;47.532;19.084;2024-03-22T08:46:30;19.40;;;11.32;;
62121;SDS011;48108;47.532;19.084;2024-03-22T08:49:33;25.30;;;10.68;;
62121;SDS011;48108;47.532;19.084;2024-03-22T08:52:38;18.70;;;10.90;;
62121;SDS011;48108;47.532;19.084;2024-03-22T08:55:46;19.02;;;11.07;;
62121;SDS011;48108;47.532;19.084;2024-03-22T08:58:49;19.37;;;10.98;;
62121;SDS011;48108;47.532;19.084;2024-03-22T09:01:51;20.58;;;11.18;;
62121;SDS011;48108;47.532;19.084;2024-03-22T09:04:54;23.27;;;11.20;;
62121;SDS011;48108;47.532;19.084;2024-03-22T09:07:57;17.67;;;11.18;;
62121;SDS011;48108;47.532;19.084;2024-03-22T09:10:59;24.42;;;11.73;;
62121;SDS011;48108;47.532;19.084;2024-03-22T09:14:01;20.50;;;11.57;;
62121;SDS011;48108;47.532;19.084;2024-03-22T09:17:03;22.58;;;11.27;;
62121;SDS011;48108;47.532;19.084;2024-03-22T09:20:05;18.73;;;10.77;;
62121;SDS011;48108;47.532;19.084;2024-03-22T09:23:09;22.10;;;11.75;;
62121;SDS011;48108;47.532;19.084;2024-03-22T09:26:11;17.98;;;11.07;;
62121;SDS011;48108;47.532;19.084;2024-03-22T09:29:13;19.77;;;11.38;;
62121;SDS011;48108;47.532;19.084;2024-03-22T09:32:15;18.60;;;11.50;;
62121;SDS011;48108;47.532;19.084;2024-03-22T09:35:17;21.62;;;11.77;;
62121;SDS011;48108;47.532;19.084;2024-03-22T09:38:19;19.40;;;11.75;;
62121;SDS011;48108;47.532;19.084;2024-03-22T09:41:23;17.65;;;12.18;;
62121;SDS011;48108;47.532;19.084;2024-03-22T09:44:27;20.62;;;11.80;;
62121;SDS011;48108;47.532;19.084;2024-03-22T09:47:29;18.00;;;11.52;;
62121;SDS011;48108;47.532;19.084;2024-03-22T09:50:31;20.00;;;11.90;;
62121;SDS011;48108;47.532;19.084;2024-03-22T09:53:34;17.75;;;10.90;;
62121;SDS011;48108;47.532;19.084;2024-03-22T09:56:40;18.20;;;11.60;;
62121;SDS011;48108;47.532;19.084;2024-03-22T09:59:44;18.83;;;12.07;;
62121;SDS011;48108;47.532;19.084;2024-03-22T10:02:47;22.60;;;11.75;;
62121;SDS011;48108;47.532;19.084;2024-03-22T10:05:50;19.85;;;12.73;;
62121;SDS011;48108;47.532;19.084;2024-03-22T10:08:52;19.48;;;11.98;;
62121;SDS011;48108;47.532;19.084;2024-03-22T10:11:55;17.58;;;11.85;;
62121;SDS011;48108;47.532;19.084;2024-03-22T10:14:58;19.65;;;11.43;;
62121;SDS011;48108;47.532;19.084;2024-03-22T10:18:00;18.90;;;11.93;;
62121;SDS011;48108;47.532;19.084;2024-03-22T10:21:02;18.05;;;12.32;;
62121;SDS011;48108;47.532;19.084;2024-03-22T10:24:05;19.25;;;11.02;;
62121;SDS011;48108;47.532;19.084;2024-03-22T10:27:09;18.58;;;11.15;;
62121;SDS011;48108;47.532;19.084;2024-03-22T10:30:11;17.80;;;11.93;;
62121;SDS011;48108;47.532;19.084;2024-03-22T10:33:17;21.73;;;12.45;;
62121;SDS011;48108;47.532;19.084;2024-03-22T10:36:21;17.37;;;11.00;;
62121;SDS011;48108;47.532;19.084;2024-03-22T10:39:23;19.23;;;11.52;;
62121;SDS011;48108;47.532;19.084;2024-03-22T10:42:27;19.08;;;10.88;;
62121;SDS011;48108;47.532;19.084;2024-03-22T10:45:29;17.67;;;11.05;;
62121;SDS011;48108;47.532;19.084;2024-03-22T10:48:32;17.08;;;11.45;;
62121;SDS011;48108;47.532;19.084;2024-03-22T10:51:35;16.92;;;11.77;;
62121;SDS011;48108;47.532;19.084;2024-03-22T10:54:39;16.00;;;9.77;;
62121;SDS011;48108;47.532;19.084;2024-03-22T10:57:45;17.02;;;10.48;;
62121;SDS011;48108;47.532;19.084;2024-03-22T11:00:51;16.73;;;9.90;;
62121;SDS011;48108;47.532;19.084;2024-03-22T11:04:03;16.40;;;10.38;;
62121;SDS011;48108;47.532;19.084;2024-03-22T11:07:08;15.10;;;10.00;;
62121;SDS011;48108;47.532;19.084;2024-03-22T11:10:13;14.73;;;9.45;;
62121;SDS011;48108;47.532;19.084;2024-03-22T11:13:16;12.75;;;8.88;;
62121;SDS011;48108;47.532;19.084;2024-03-22T11:16:19;19.17;;;9.70;;
62121;SDS011;48108;47.532;19.084;2024-03-22T11:19:22;20.12;;;11.15;;
62121;SDS011;48108;47.532;19.084;2024-03-22T11:22:25;15.40;;;10.50;;
62121;SDS011;48108;47.532;19.084;2024-03-22T11:25:28;17.42;;;10.77;;
62121;SDS011;48108;47.532;19.084;2024-03-22T11:28:30;19.27;;;11.65;;
62121;SDS011;48108;47.532;19.084;2024-03-22T11:31:33;17.67;;;11.43;;
62121;SDS011;48108;47.532;19.084;2024-03-22T11:34:41;18.00;;;10.93;;
62121;SDS011;48108;47.532;19.084;2024-03-22T11:37:43;18.50;;;11.50;;
62121;SDS011;48108;47.532;19.084;2024-03-22T11:40:45;15.38;;;10.45;;
62121;SDS011;48108;47.532;19.084;2024-03-22T11:43:48;17.33;;;10.27;;
62121;SDS011;48108;47.532;19.084;2024-03-22T11:46:52;16.10;;;10.25;;
62121;SDS011;48108;47.532;19.084;2024-03-22T11:49:55;13.62;;;8.80;;
62121;SDS011;48108;47.532;19.084;2024-03-22T11:52:57;15.77;;;10.52;;
62121;SDS011;48108;47.532;19.084;2024-03-22T11:56:00;13.48;;;8.48;;
62121;SDS011;48108;47.532;19.084;2024-03-22T11:59:01;11.45;;;7.85;;
62121;SDS011;48108;47.532;19.084;2024-03-22T12:02:05;11.38;;;7.45;;
62121;SDS011;48108;47.532;19.084;2024-03-22T12:05:10;12.70;;;7.62;;
62121;SDS011;48108;47.532;19.084;2024-03-22T12:08:14;11.43;;;7.18;;
62121;SDS011;48108;47.532;19.084;2024-03-22T12:11:16;11.80;;;7.65;;
62121;SDS011;48108;47.532;19.084;2024-03-22T12:14:19;10.40;;;7.80;;
62121;SDS011;48108;47.532;19.084;2024-03-22T12:17:21;14.23;;;8.13;;
62121;SDS011;48108;47.532;19.084;2024-03-22T12:20:23;11.95;;;7.78;;
62121;SDS011;48108;47.532;19.084;2024-03-22T12:23:25;11.65;;;7.75;;
62121;SDS011;48108;47.532;19.084;2024-03-22T12:26:30;10.75;;;7.55;;
62121;SDS011;48108;47.532;19.084;2024-03-22T12:29:32;12.95;;;8.63;;
62121;SDS011;48108;47.532;19.084;2024-03-22T12:32:35;14.57;;;9.15;;
62121;SDS011;48108;47.532;19.084;2024-03-22T12:35:38;12.82;;;8.25;;
62121;SDS011;48108;47.532;19.084;2024-03-22T12:38:41;13.18;;;8.55;;
62121;SDS011;48108;47.532;19.084;2024-03-22T12:41:43;13.93;;;8.82;;
62121;SDS011;48108;47.532;19.084;2024-03-22T12:44:45;13.10;;;8.75;;
62121;SDS011;48108;47.532;19.084;2024-03-22T12:47:47;14.30;;;9.00;;
62121;SDS011;48108;47.532;19.084;2024-03-22T12:50:48;13.23;;;8.98;;
62121;SDS011;48108;47.532;19.084;2024-03-22T12:53:51;13.48;;;8.27;;
62121;SDS011;48108;47.532;19.084;2024-03-22T12:56:54;13.32;;;8.98;;
62121;SDS011;48108;47.532;19.084;2024-03-22T12:59:57;15.38;;;9.15;;
62121;SDS011;48108;47.532;19.084;2024-03-22T13:02:59;14.25;;;9.02;;
62121;SDS011;48108;47.532;19.084;2024-03-22T13:06:01;18.02;;;8.82;;
62121;SDS011;48108;47.532;19.084;2024-03-22T13:09:03;11.57;;;7.72;;
62121;SDS011;48108;47.532;19.084;2024-03-22T13:12:06;16.95;;;9.45;;
62121;SDS011;48108;47.532;19.084;2024-03-22T13:15:09;11.85;;;8.00;;
62121;SDS011;48108;47.532;19.084;2024-03-22T13:18:11;13.40;;;8.95;;
62121;SDS011;48108;47.532;19.084;2024-03-22T13:21:13;15.75;;;8.65;;
62121;SDS011;48108;47.532;19.084;2024-03-22T13:24:15;15.18;;;8.38;;
62121;SDS011;48108;47.532;19.084;2024-03-22T13:27:17;14.38;;;8.77;;
62121;SDS011;48108;47.532;19.084;2024-03-22T13:30:19;12.40;;;8.77;;
62121;SDS011;48108;47.532;19.084;2024-03-22T13:33:21;14.05;;;8.55;;
62121;SDS011;48108;47.532;19.084;2024-03-22T13:36:23;16.00;;;9.13;;
62121;SDS011;48108;47.532;19.084;2024-03-22T13:39:27;18.20;;;9.23;;
62121;SDS011;48108;47.532;19.084;2024-03-22T13:42:31;12.25;;;7.85;;
62121;SDS011;48108;47.532;19.084;2024-03-22T13:45:38;13.25;;;7.62;;
62121;SDS011;48108;47.532;19.084;2024-03-22T13:48:43;11.55;;;8.20;;
62121;SDS011;48108;47.532;19.084;2024-03-22T13:51:45;16.12;;;8.65;;
62121;SDS011;48108;47.532;19.084;2024-03-22T13:54:47;12.70;;;8.57;;
62121;SDS011;48108;47.532;19.084;2024-03-22T13:57:51;12.30;;;8.63;;
62121;SDS011;48108;47.532;19.084;2024-03-22T14:00:53;12.85;;;9.02;;
62121;SDS011;48108;47.532;19.084;2024-03-22T14:03:55;13.32;;;9.27;;
62121;SDS011;48108;47.532;19.084;2024-03-22T14:06:58;12.20;;;8.07;;
62121;SDS011;48108;47.532;19.084;2024-03-22T14:10:00;10.80;;;7.82;;
62121;SDS011;48108;47.532;19.084;2024-03-22T14:13:02;12.93;;;7.43;;
62121;SDS011;48108;47.532;19.084;2024-03-22T14:16:05;10.70;;;7.07;;
62121;SDS011;48108;47.532;19.084;2024-03-22T14:19:09;9.63;;;5.93;;
62121;SDS011;48108;47.532;19.084;2024-03-22T14:22:11;9.73;;;6.65;;
62121;SDS011;48108;47.532;19.084;2024-03-22T14:25:13;8.93;;;5.95;;
62121;SDS011;48108;47.532;19.084;2024-03-22T14:28:15;9.23;;;6.37;;
62121;SDS011;48108;47.532;19.084;2024-03-22T14:31:17;10.20;;;6.15;;
62121;SDS011;48108;47.532;19.084;2024-03-22T14:34:19;8.55;;;6.22;;
62121;SDS011;48108;47.532;19.084;2024-03-22T14:37:21;8.25;;;5.97;;
62121;SDS011;48108;47.532;19.084;2024-03-22T14:40:23;9.07;;;6.35;;
62121;SDS011;48108;47.532;19.084;2024-03-22T14:43:25;28.08;;;7.37;;
62121;SDS011;48108;47.532;19.084;2024-03-22T14:46:28;10.63;;;6.35;;
62121;SDS011;48108;47.532;19.084;2024-03-22T14:49:30;10.82;;;6.78;;
62121;SDS011;48108;47.532;19.084;2024-03-22T14:52:32;9.35;;;6.32;;
62121;SDS011;48108;47.532;19.084;2024-03-22T14:55:34;10.50;;;6.80;;
62121;SDS011;48108;47.532;19.084;2024-03-22T14:58:38;8.95;;;5.97;;
62121;SDS011;48108;47.532;19.084;2024-03-22T15:01:40;11.15;;;6.80;;
62121;SDS011;48108;47.532;19.084;2024-03-22T15:04:42;10.65;;;6.60;;
62121;SDS011;48108;47.532;19.084;2024-03-22T15:07:45;8.10;;;6.40;;
62121;SDS011;48108;47.532;19.084;2024-03-22T15:10:49;8.80;;;6.22;;
62121;SDS011;48108;47.532;19.084;2024-03-22T15:13:51;10.82;;;5.50;;
62121;SDS011;48108;47.532;19.084;2024-03-22T15:16:53;10.38;;;6.30;;
62121;SDS011;48108;47.532;19.084;2024-03-22T15:19:54;10.57;;;5.62;;
62121;SDS011;48108;47.532;19.084;2024-03-22T15:22:57;8.18;;;6.05;;
62121;SDS011;48108;47.532;19.084;2024-03-22T15:25:59;8.65;;;6.00;;
62121;SDS011;48108;47.532;19.084;2024-03-22T15:29:01;10.35;;;6.03;;
62121;SDS011;48108;47.532;19.084;2024-03-22T15:32:03;12.02;;;5.47;;
62121;SDS011;48108;47.532;19.084;2024-03-22T15:35:05;8.48;;;5.12;;
62121;SDS011;48108;47.532;19.084;2024-03-22T15:38:08;11.20;;;5.00;;
62121;SDS011;48108;47.532;19.084;2024-03-22T15:41:10;7.60;;;4.68;;
62121;SDS011;48108;47.532;19.084;2024-03-22T15:44:13;9.60;;;4.40;;
62121;SDS011;48108;47.532;19.084;2024-03-22T15:47:15;14.63;;;4.80;;
62121;SDS011;48108;47.532;19.084;2024-03-22T15:50:17;6.70;;;4.00;;
62121;SDS011;48108;47.532;19.084;2024-03-22T15:53:19;4.95;;;4.45;;
62121;SDS011;48108;47.532;19.084;2024-03-22T15:56:21;6.20;;;4.50;;
62121;SDS011;48108;47.532;19.084;2024-03-22T15:59:23;8.00;;;4.53;;
62121;SDS011;48108;47.532;19.084;2024-03-22T16:02:25;7.57;;;5.07;;
62121;SDS011;48108;47.532;19.084;2024-03-22T16:05:27;7.28;;;4.75;;
62121;SDS011;48108;47.532;19.084;2024-03-22T16:08:29;7.87;;;4.80;;
62121;SDS011;48108;47.532;19.084;2024-03-22T16:11:31;6.80;;;5.28;;
62121;SDS011;48108;47.532;19.084;2024-03-22T16:14:33;10.15;;;5.30;;
62121;SDS011;48108;47.532;19.084;2024-03-22T16:17:35;11.25;;;5.93;;
62121;SDS011;48108;47.532;19.084;2024-03-22T16:20:38;8.48;;;5.32;;
62121;SDS011;48108;47.532;19.084;2024-03-22T16:23:40;9.32;;;5.87;;
62121;SDS011;48108;47.532;19.084;2024-03-22T16:26:42;8.82;;;5.60;;
62121;SDS011;48108;47.532;19.084;2024-03-22T16:29:44;11.25;;;5.68;;
62121;SDS011;48108;47.532;19.084;2024-03-22T16:32:45;12.52;;;6.12;;
62121;SDS011;48108;47.532;19.084;2024-03-22T16:35:47;8.77;;;5.05;;
62121;SDS011;48108;47.532;19.084;2024-03-22T16:38:49;6.93;;;4.70;;
62121;SDS011;48108;47.532;19.084;2024-03-22T16:41:51;8.50;;;4.93;;
62121;SDS011;48108;47.532;19.084;2024-03-22T16:44:54;9.10;;;5.22;;
62121;SDS011;48108;47.532;19.084;2024-03-22T16:47:56;7.57;;;4.75;;
62121;SDS011;48108;47.532;19.084;2024-03-22T16:50:58;7.72;;;5.50;;
62121;SDS011;48108;47.532;19.084;2024-03-22T16:54:01;7.37;;;4.97;;
62121;SDS011;48108;47.532;19.084;2024-03-22T16:57:02;6.95;;;4.80;;
